createdAt,value
2018-06-24T00:02:06.564Z,11.60
2018-06-24T00:04:35.106Z,11.70
2018-06-24T00:07:03.752Z,11.70
2018-06-24T00:09:32.275Z,11.80
2018-06-24T00:12:00.768Z,11.90
2018-06-24T00:14:29.295Z,11.90
2018-06-24T00:16:57.875Z,11.90
2018-06-24T00:19:26.398Z,11.90
2018-06-24T00:21:54.878Z,11.80
2018-06-24T00:24:23.466Z,11.70
2018-06-24T00:26:51.947Z,11.70
2018-06-24T00:29:20.436Z,11.60
2018-06-24T00:31:48.927Z,11.50
2018-06-24T00:34:17.474Z,11.50
2018-06-24T00:36:46.147Z,11.40
2018-06-24T00:39:14.662Z,11.40
2018-06-24T00:41:43.241Z,11.30
2018-06-24T00:44:11.781Z,11.20
2018-06-24T00:46:40.276Z,11.10
2018-06-24T00:49:08.773Z,11.10
2018-06-24T00:51:37.290Z,11.10
2018-06-24T00:54:05.810Z,11.10
2018-06-24T00:56:34.307Z,11.00
2018-06-24T00:59:02.799Z,11.00
2018-06-24T01:01:31.377Z,10.90
2018-06-24T01:03:59.842Z,10.80
2018-06-24T01:06:28.341Z,10.90
2018-06-24T01:08:56.789Z,11.00
2018-06-24T01:11:25.264Z,11.00
2018-06-24T01:13:53.735Z,11.10
2018-06-24T01:16:22.362Z,11.20
2018-06-24T01:18:50.836Z,11.40
2018-06-24T01:21:19.430Z,11.30
2018-06-24T01:23:47.970Z,11.40
2018-06-24T01:26:16.443Z,11.40
2018-06-24T01:28:44.976Z,11.40
2018-06-24T01:31:13.450Z,11.30
2018-06-24T01:33:41.960Z,11.20
2018-06-24T01:36:10.450Z,11.20
2018-06-24T01:38:38.911Z,11.10
2018-06-24T01:43:35.507Z,11.10
2018-06-24T01:46:04.103Z,11.20
2018-06-24T01:48:32.570Z,11.20
2018-06-24T01:51:01.100Z,11.30
2018-06-24T01:53:29.594Z,11.40
2018-06-24T01:55:58.090Z,11.40
2018-06-24T01:58:26.609Z,11.30
2018-06-24T02:00:55.094Z,11.30
2018-06-24T02:03:23.573Z,11.40
2018-06-24T02:05:52.151Z,11.60
2018-06-24T02:08:20.767Z,11.60
2018-06-24T02:10:49.258Z,11.60
2018-06-24T02:13:17.702Z,11.50
2018-06-24T02:15:46.194Z,11.60
2018-06-24T02:18:14.667Z,11.40
2018-06-24T02:20:43.190Z,11.50
2018-06-24T02:23:11.762Z,11.40
2018-06-24T02:25:40.252Z,11.30
2018-06-24T02:28:08.824Z,11.20
2018-06-24T02:30:37.411Z,11.10
2018-06-24T02:33:05.871Z,11.10
2018-06-24T02:35:34.348Z,10.90
2018-06-24T02:38:03.170Z,10.80
2018-06-24T02:40:31.649Z,10.70
2018-06-24T02:43:00.134Z,10.80
2018-06-24T02:45:28.606Z,10.60
2018-06-24T02:47:57.115Z,10.60
2018-06-24T02:50:25.610Z,10.60
2018-06-24T02:52:54.096Z,10.50
2018-06-24T02:55:22.742Z,10.50
2018-06-24T02:57:51.272Z,10.50
2018-06-24T03:00:19.952Z,10.40
2018-06-24T03:02:48.444Z,10.40
2018-06-24T03:05:16.947Z,10.40
2018-06-24T03:07:45.402Z,10.30
2018-06-24T03:10:13.872Z,10.30
2018-06-24T03:12:42.375Z,10.30
2018-06-24T03:15:10.827Z,10.30
2018-06-24T03:17:39.306Z,10.30
2018-06-24T03:20:07.842Z,10.20
2018-06-24T03:22:36.314Z,10.20
2018-06-24T03:25:04.800Z,10.10
2018-06-24T03:27:33.291Z,10.00
2018-06-24T03:30:01.740Z,10.10
2018-06-24T03:32:30.191Z,10.40
2018-06-24T03:34:58.662Z,10.30
2018-06-24T03:37:27.135Z,10.20
2018-06-24T03:39:55.642Z,10.10
2018-06-24T03:42:24.095Z,10.10
2018-06-24T03:44:52.632Z,10.00
2018-06-24T03:47:21.126Z,10.10
2018-06-24T03:49:49.618Z,10.20
2018-06-24T03:52:18.108Z,10.20
2018-06-24T03:54:46.699Z,10.20
2018-06-24T03:57:15.204Z,10.20
2018-06-24T03:59:43.764Z,10.20
2018-06-24T04:02:12.270Z,10.30
2018-06-24T04:04:40.762Z,10.30
2018-06-24T04:07:09.220Z,10.40
2018-06-24T04:09:37.696Z,10.30
2018-06-24T04:12:06.178Z,10.40
2018-06-24T04:14:34.801Z,10.50
2018-06-24T04:17:03.443Z,10.60
2018-06-24T04:19:31.896Z,10.80
2018-06-24T04:22:00.372Z,11.00
2018-06-24T04:24:28.829Z,10.90
2018-06-24T04:26:57.296Z,10.90
2018-06-24T04:29:25.827Z,11.00
2018-06-24T04:34:22.578Z,11.00
2018-06-24T04:36:51.008Z,11.00
2018-06-24T04:39:19.478Z,11.20
2018-06-24T04:41:47.935Z,11.20
2018-06-24T04:44:16.421Z,11.20
2018-06-24T04:46:44.943Z,11.40
2018-06-24T04:51:42.572Z,11.70
2018-06-24T04:54:11.048Z,11.80
2018-06-24T04:56:39.543Z,11.60
2018-06-24T04:59:08.035Z,11.60
2018-06-24T05:01:36.763Z,11.50
2018-06-24T05:04:05.565Z,11.40
2018-06-24T05:06:34.047Z,11.50
2018-06-24T05:09:02.599Z,11.70
2018-06-24T05:11:31.161Z,11.70
2018-06-24T05:13:59.709Z,12.00
2018-06-24T05:16:28.202Z,12.20
2018-06-24T05:18:56.831Z,12.40
2018-06-24T05:21:25.324Z,12.40
2018-06-24T05:23:53.827Z,12.40
2018-06-24T05:26:22.329Z,12.70
2018-06-24T05:28:50.770Z,12.60
2018-06-24T05:31:19.399Z,12.60
2018-06-24T05:33:48.093Z,12.80
2018-06-24T05:36:16.577Z,12.70
2018-06-24T05:38:45.060Z,12.80
2018-06-24T05:41:13.619Z,13.00
2018-06-24T05:43:42.078Z,13.10
2018-06-24T05:46:10.616Z,13.30
2018-06-24T05:51:07.472Z,13.50
2018-06-24T05:53:35.991Z,13.50
2018-06-24T05:56:04.712Z,13.60
2018-06-24T05:58:33.173Z,13.60
2018-06-24T06:01:01.628Z,13.70
2018-06-24T06:03:30.095Z,14.00
2018-06-24T06:05:58.654Z,14.00
2018-06-24T06:08:27.124Z,14.10
2018-06-24T06:10:55.609Z,14.50
2018-06-24T06:13:24.141Z,14.40
2018-06-24T06:15:52.841Z,14.60
2018-06-24T06:18:21.486Z,14.90
2018-06-24T06:20:50.081Z,15.10
2018-06-24T06:23:18.650Z,15.30
2018-06-24T06:25:47.161Z,15.50
2018-06-24T06:30:44.366Z,15.60
2018-06-24T06:33:12.941Z,15.60
2018-06-24T06:35:41.449Z,15.40
2018-06-24T06:38:09.916Z,15.70
2018-06-24T06:40:38.364Z,15.60
2018-06-24T06:43:06.841Z,15.50
2018-06-24T06:45:35.511Z,15.80
2018-06-24T06:48:03.915Z,16.00
2018-06-24T06:50:32.378Z,16.20
2018-06-24T06:53:00.832Z,16.60
2018-06-24T06:55:29.393Z,16.60
2018-06-24T06:57:58.095Z,16.70
2018-06-24T07:00:26.774Z,17.00
2018-06-24T07:02:55.297Z,17.40
2018-06-24T07:05:23.884Z,18.10
2018-06-24T07:07:52.414Z,18.50
2018-06-24T07:10:20.891Z,19.10
2018-06-24T07:12:49.458Z,19.40
2018-06-24T07:15:17.989Z,20.20
2018-06-24T07:17:46.934Z,21.40
2018-06-24T07:20:15.431Z,22.00
2018-06-24T07:22:43.924Z,21.30
2018-06-24T07:25:12.531Z,20.50
2018-06-24T07:27:41.222Z,19.90
2018-06-24T07:30:09.761Z,19.50
2018-06-24T07:32:38.377Z,19.20
2018-06-24T07:35:07.181Z,19.10
2018-06-24T07:37:35.738Z,19.80
2018-06-24T07:40:04.270Z,20.50
2018-06-24T07:42:32.827Z,21.80
2018-06-24T07:45:01.422Z,23.00
2018-06-24T07:47:30.093Z,23.40
2018-06-24T07:49:58.575Z,23.60
2018-06-24T07:52:27.075Z,23.90
2018-06-24T07:54:55.559Z,23.00
2018-06-24T07:57:24.099Z,21.40
2018-06-24T07:59:52.555Z,21.30
2018-06-24T08:04:49.394Z,20.60
2018-06-24T08:07:17.988Z,20.40
2018-06-24T08:09:46.626Z,21.00
2018-06-24T08:12:15.377Z,21.70
2018-06-24T08:14:44.017Z,22.10
2018-06-24T08:17:12.528Z,22.90
2018-06-24T08:19:41.020Z,23.00
2018-06-24T08:22:09.607Z,21.90
2018-06-24T08:27:06.252Z,20.10
2018-06-24T08:29:35.032Z,19.90
2018-06-24T08:32:03.506Z,20.60
2018-06-24T08:34:32.215Z,21.40
2018-06-24T08:37:00.698Z,21.70
2018-06-24T08:39:29.266Z,23.00
2018-06-24T08:41:57.863Z,24.30
2018-06-24T08:44:26.340Z,24.70
2018-06-24T08:46:54.888Z,24.60
2018-06-24T08:49:23.442Z,25.30
2018-06-24T08:51:51.935Z,25.70
2018-06-24T08:54:20.497Z,25.40
2018-06-24T08:56:49.002Z,25.20
2018-06-24T08:59:17.539Z,26.20
2018-06-24T09:01:46.127Z,26.90
2018-06-24T09:04:14.646Z,27.60
2018-06-24T09:06:43.330Z,27.80
2018-06-24T09:09:11.888Z,27.50
2018-06-24T09:11:41.308Z,28.10
2018-06-24T09:14:09.864Z,28.30
2018-06-24T09:16:38.356Z,25.50
2018-06-24T09:19:06.927Z,25.00
2018-06-24T09:21:36.260Z,24.70
2018-06-24T09:24:05.049Z,24.10
2018-06-24T09:26:33.823Z,24.10
2018-06-24T09:29:02.429Z,24.80
2018-06-24T09:31:31.055Z,25.50
2018-06-24T09:33:59.523Z,24.80
2018-06-24T09:36:28.100Z,24.00
2018-06-24T09:38:56.741Z,24.20
2018-06-24T09:41:25.841Z,24.70
2018-06-24T09:43:54.608Z,25.10
2018-06-24T09:46:23.106Z,25.20
2018-06-24T09:48:51.625Z,26.00
2018-06-24T09:51:20.209Z,25.80
2018-06-24T09:53:48.827Z,25.60
2018-06-24T09:56:17.541Z,25.30
2018-06-24T09:58:46.120Z,24.90
2018-06-24T10:01:14.691Z,24.20
2018-06-24T10:03:43.191Z,23.50
2018-06-24T10:06:11.831Z,23.30
2018-06-24T10:08:42.213Z,23.20
2018-06-24T10:11:11.804Z,23.00
2018-06-24T10:13:40.411Z,23.20
2018-06-24T10:18:37.139Z,22.40
2018-06-24T10:21:06.379Z,22.00
2018-06-24T10:23:34.884Z,22.10
2018-06-24T10:26:03.822Z,21.70
2018-06-24T10:28:32.360Z,22.10
2018-06-24T10:31:00.961Z,22.60
2018-06-24T10:33:29.480Z,23.00
2018-06-24T10:35:58.129Z,23.20
2018-06-24T10:38:26.648Z,23.20
2018-06-24T10:40:55.376Z,23.30
2018-06-24T10:43:23.906Z,23.60
2018-06-24T10:45:52.362Z,23.40
2018-06-24T10:48:20.948Z,23.20
2018-06-24T10:50:49.536Z,22.50
2018-06-24T10:53:18.106Z,22.60
2018-06-24T10:55:46.629Z,23.00
2018-06-24T10:58:15.103Z,22.80
2018-06-24T11:00:43.717Z,22.20
2018-06-24T11:03:12.295Z,22.40
2018-06-24T11:05:40.805Z,22.10
2018-06-24T11:08:09.399Z,22.30
2018-06-24T11:10:37.978Z,22.50
2018-06-24T11:13:06.520Z,22.70
2018-06-24T11:15:35.155Z,22.80
2018-06-24T11:18:03.818Z,22.80
2018-06-24T11:20:32.408Z,22.20
2018-06-24T11:23:01.063Z,22.30
2018-06-24T11:25:29.562Z,22.20
2018-06-24T11:27:58.147Z,22.20
2018-06-24T11:30:26.701Z,22.30
2018-06-24T11:32:55.224Z,22.00
2018-06-24T11:35:23.725Z,21.90
2018-06-24T11:37:52.427Z,21.70
2018-06-24T11:40:20.941Z,21.60
2018-06-24T11:42:49.425Z,21.50
2018-06-24T11:45:17.928Z,21.60
2018-06-24T11:47:46.551Z,21.80
2018-06-24T11:50:15.031Z,22.10
2018-06-24T11:52:43.867Z,22.30
2018-06-24T11:55:12.368Z,22.90
2018-06-24T11:57:41.057Z,23.20
2018-06-24T12:00:09.635Z,23.00
2018-06-24T12:02:38.335Z,22.60
2018-06-24T12:05:06.856Z,22.70
2018-06-24T12:07:35.386Z,22.50
2018-06-24T12:10:03.922Z,22.00
2018-06-24T12:12:32.418Z,22.50
2018-06-24T12:15:01.096Z,22.40
2018-06-24T12:17:29.591Z,22.40
2018-06-24T12:19:58.171Z,22.60
2018-06-24T12:22:26.654Z,22.70
2018-06-24T12:24:55.112Z,23.20
2018-06-24T12:27:23.613Z,23.60
2018-06-24T12:29:52.241Z,23.90
2018-06-24T12:32:20.784Z,24.10
2018-06-24T12:34:49.286Z,23.90
2018-06-24T12:37:17.934Z,23.20
2018-06-24T12:39:46.392Z,23.30
2018-06-24T12:42:14.892Z,23.90
2018-06-24T12:44:43.405Z,24.70
2018-06-24T12:47:11.914Z,24.40
2018-06-24T12:49:40.442Z,23.40
2018-06-24T12:52:09.040Z,22.80
2018-06-24T12:54:37.803Z,22.90
2018-06-24T12:57:06.585Z,22.70
2018-06-24T12:59:35.587Z,22.80
2018-06-24T13:02:04.155Z,22.50
2018-06-24T13:04:34.701Z,22.40
2018-06-24T13:07:03.202Z,22.60
2018-06-24T13:09:31.710Z,23.10
2018-06-24T13:12:00.363Z,23.00
2018-06-24T13:14:28.886Z,23.10
2018-06-24T13:16:57.494Z,23.20
2018-06-24T13:19:26.121Z,23.00
2018-06-24T13:21:54.603Z,22.70
2018-06-24T13:24:23.229Z,23.00
2018-06-24T13:26:51.788Z,22.70
2018-06-24T13:29:20.375Z,23.10
2018-06-24T13:31:48.976Z,22.90
2018-06-24T13:34:17.576Z,22.70
2018-06-24T13:36:46.367Z,22.40
2018-06-24T13:39:14.984Z,22.30
2018-06-24T13:41:43.559Z,22.50
2018-06-24T13:44:12.107Z,22.40
2018-06-24T13:46:40.701Z,22.10
2018-06-24T13:49:09.319Z,21.70
2018-06-24T13:51:37.787Z,21.80
2018-06-24T13:54:06.398Z,21.90
2018-06-24T13:56:34.962Z,22.00
2018-06-24T13:59:03.518Z,22.00
2018-06-24T14:01:32.037Z,21.90
2018-06-24T14:04:00.585Z,21.90
2018-06-24T14:06:29.141Z,22.20
2018-06-24T14:08:58.546Z,22.50
2018-06-24T14:11:27.229Z,22.30
2018-06-24T14:13:55.793Z,22.60
2018-06-24T14:16:24.387Z,22.70
2018-06-24T14:18:52.931Z,22.90
2018-06-24T14:21:21.572Z,23.00
2018-06-24T14:23:50.056Z,22.60
2018-06-24T14:26:18.566Z,22.60
2018-06-24T14:28:47.220Z,22.70
2018-06-24T14:31:15.900Z,22.80
2018-06-24T14:33:44.479Z,22.80
2018-06-24T14:36:13.103Z,23.10
2018-06-24T14:38:42.233Z,23.20
2018-06-24T14:41:10.993Z,23.40
2018-06-24T14:43:39.518Z,23.40
2018-06-24T14:46:08.350Z,23.30
2018-06-24T14:48:37.180Z,22.90
2018-06-24T14:51:05.962Z,22.50
2018-06-24T14:53:34.506Z,22.40
2018-06-24T14:56:03.072Z,22.30
2018-06-24T14:58:31.572Z,22.30
2018-06-24T15:01:00.086Z,22.00
2018-06-24T15:03:28.697Z,21.60
2018-06-24T15:08:25.379Z,21.90
2018-06-24T15:10:54.003Z,21.90
2018-06-24T15:13:22.542Z,21.90
2018-06-24T15:15:51.065Z,21.70
2018-06-24T15:18:19.692Z,21.70
2018-06-24T15:20:48.303Z,21.80
2018-06-24T15:23:16.878Z,21.60
2018-06-24T15:25:45.541Z,21.30
2018-06-24T15:28:14.343Z,21.40
2018-06-24T15:30:43.129Z,21.40
2018-06-24T15:33:11.741Z,21.80
2018-06-24T15:35:40.254Z,21.80
2018-06-24T15:38:08.727Z,21.90
2018-06-24T15:40:37.471Z,22.00
2018-06-24T15:43:06.026Z,22.00
2018-06-24T15:45:34.548Z,21.90
2018-06-24T15:48:03.048Z,22.10
2018-06-24T15:50:31.730Z,21.90
2018-06-24T15:53:00.311Z,21.60
2018-06-24T15:55:28.841Z,21.60
2018-06-24T15:57:57.368Z,21.80
2018-06-24T16:00:25.921Z,21.80
2018-06-24T16:02:54.450Z,21.60
2018-06-24T16:05:22.980Z,21.40
2018-06-24T16:07:51.527Z,21.00
2018-06-24T16:10:20.186Z,20.80
2018-06-24T16:12:48.874Z,20.70
2018-06-24T16:15:17.656Z,20.70
2018-06-24T16:20:14.811Z,20.60
2018-06-24T16:22:43.640Z,20.70
2018-06-24T16:25:12.219Z,20.50
2018-06-24T16:27:40.802Z,20.40
2018-06-24T16:30:09.424Z,20.50
2018-06-24T16:32:37.874Z,20.40
2018-06-24T16:35:06.421Z,20.40
2018-06-24T16:37:35.479Z,20.60
2018-06-24T16:40:04.494Z,20.60
2018-06-24T16:42:33.216Z,20.40
2018-06-24T16:45:01.745Z,20.30
2018-06-24T16:47:30.570Z,20.20
2018-06-24T16:49:59.247Z,20.10
2018-06-24T16:52:27.739Z,20.20
2018-06-24T16:54:56.695Z,20.30
2018-06-24T16:57:25.310Z,20.50
2018-06-24T16:59:53.822Z,20.50
2018-06-24T17:02:22.355Z,20.60
2018-06-24T17:04:51.628Z,20.30
2018-06-24T17:07:20.161Z,20.30
2018-06-24T17:09:48.739Z,20.40
2018-06-24T17:12:17.248Z,20.40
2018-06-24T17:14:46.159Z,20.40
2018-06-24T17:17:14.700Z,20.30
2018-06-24T17:19:43.583Z,20.20
2018-06-24T17:22:11.987Z,20.10
2018-06-24T17:24:40.627Z,19.90
2018-06-24T17:27:09.154Z,20.00
2018-06-24T17:29:37.708Z,20.00
2018-06-24T17:32:06.565Z,19.80
2018-06-24T17:34:35.105Z,19.60
2018-06-24T17:37:03.639Z,19.30
2018-06-24T17:39:32.136Z,19.40
2018-06-24T17:42:00.791Z,19.40
2018-06-24T17:44:29.496Z,19.30
2018-06-24T17:46:58.334Z,19.20
2018-06-24T17:49:27.063Z,19.20
2018-06-24T17:51:55.625Z,19.10
2018-06-24T17:54:24.342Z,19.00
2018-06-24T17:56:53.134Z,19.00
2018-06-24T17:59:21.677Z,18.90
2018-06-24T18:01:50.478Z,18.80
2018-06-24T18:04:19.031Z,18.90
2018-06-24T18:06:47.748Z,18.80
2018-06-24T18:09:16.416Z,18.80
2018-06-24T18:11:44.926Z,18.90
2018-06-24T18:14:14.436Z,18.90
2018-06-24T18:16:42.980Z,18.90
2018-06-24T18:19:11.498Z,18.80
2018-06-24T18:21:40.048Z,18.60
2018-06-24T18:24:08.571Z,18.60
2018-06-24T18:26:37.107Z,18.50
2018-06-24T18:29:05.593Z,18.40
2018-06-24T18:31:34.178Z,18.40
2018-06-24T18:34:02.696Z,18.30
2018-06-24T18:36:31.229Z,18.30
2018-06-24T18:38:59.795Z,18.20
2018-06-24T18:41:28.372Z,18.20
2018-06-24T18:43:56.890Z,18.30
2018-06-24T18:46:25.683Z,18.00
2018-06-24T18:48:54.325Z,18.10
2018-06-24T18:51:22.862Z,18.00
2018-06-24T18:53:51.539Z,17.90
2018-06-24T18:56:20.387Z,17.80
2018-06-24T18:58:48.913Z,17.80
2018-06-24T19:01:17.445Z,17.70
2018-06-24T19:03:46.096Z,17.70
2018-06-24T19:06:14.719Z,17.60
2018-06-24T19:08:43.411Z,17.50
2018-06-24T19:11:12.024Z,17.50
2018-06-24T19:13:40.605Z,17.50
2018-06-24T19:16:09.255Z,17.60
2018-06-24T19:18:37.779Z,17.60
2018-06-24T19:21:06.390Z,17.60
2018-06-24T19:23:34.879Z,17.50
2018-06-24T19:26:03.489Z,17.40
2018-06-24T19:28:32.062Z,17.40
2018-06-24T19:31:00.626Z,17.30
2018-06-24T19:33:29.216Z,17.30
2018-06-24T19:35:57.848Z,17.40
2018-06-24T19:38:26.365Z,17.40
2018-06-24T19:40:55.044Z,17.30
2018-06-24T19:43:23.680Z,17.40
2018-06-24T19:45:52.363Z,17.20
2018-06-24T19:48:20.922Z,17.10
2018-06-24T19:50:49.593Z,17.20
2018-06-24T19:53:18.137Z,17.10
2018-06-24T19:55:48.046Z,17.10
2018-06-24T19:58:16.537Z,17.10
2018-06-24T20:00:45.082Z,17.00
2018-06-24T20:03:13.698Z,17.00
2018-06-24T20:05:42.296Z,16.90
2018-06-24T20:08:10.807Z,17.00
2018-06-24T20:10:39.342Z,16.90
2018-06-24T20:13:07.887Z,17.00
2018-06-24T20:15:36.476Z,16.90
2018-06-24T20:18:05.481Z,17.00
2018-06-24T20:20:34.546Z,17.10
2018-06-24T20:23:03.062Z,17.10
2018-06-24T20:25:31.683Z,16.90
2018-06-24T20:28:00.209Z,17.00
2018-06-24T20:30:28.816Z,17.10
2018-06-24T20:32:57.502Z,17.00
2018-06-24T20:35:26.016Z,17.00
2018-06-24T20:37:54.612Z,16.90
2018-06-24T20:40:23.186Z,16.90
2018-06-24T20:42:51.931Z,17.00
2018-06-24T20:45:20.549Z,16.90
2018-06-24T20:47:49.508Z,16.80
2018-06-24T20:50:18.342Z,16.70
2018-06-24T20:52:47.006Z,16.80
2018-06-24T20:55:15.530Z,16.90
2018-06-24T20:57:44.072Z,16.80
2018-06-24T21:00:12.635Z,16.90
2018-06-24T21:02:45.048Z,16.90
2018-06-24T21:05:13.609Z,16.80
2018-06-24T21:07:42.170Z,16.80
2018-06-24T21:10:10.795Z,16.80
2018-06-24T21:12:39.392Z,16.80
2018-06-24T21:15:07.875Z,16.80
2018-06-24T21:17:36.477Z,16.70
2018-06-24T21:20:05.348Z,16.70
2018-06-24T21:22:33.900Z,16.70
2018-06-24T21:25:02.831Z,16.70
2018-06-24T21:27:31.343Z,16.70
2018-06-24T21:29:59.838Z,16.70
2018-06-24T21:32:28.339Z,16.60
2018-06-24T21:34:56.825Z,16.60
2018-06-24T21:37:25.365Z,16.50
2018-06-24T21:39:53.860Z,16.50
2018-06-24T21:42:22.381Z,16.60
2018-06-24T21:44:51.059Z,16.50
2018-06-24T21:47:19.702Z,16.50
2018-06-24T21:49:48.176Z,16.50
2018-06-24T21:52:16.654Z,16.60
2018-06-24T21:54:45.175Z,16.50
2018-06-24T21:57:13.773Z,16.50
2018-06-24T21:59:42.260Z,16.40
2018-06-24T22:02:10.770Z,16.40
2018-06-24T22:04:39.389Z,16.30
2018-06-24T22:07:07.902Z,16.20
2018-06-24T22:09:36.418Z,16.20
2018-06-24T22:12:04.976Z,16.20
2018-06-24T22:14:35.347Z,16.30
2018-06-24T22:17:03.884Z,16.20
2018-06-24T22:19:32.431Z,16.20
2018-06-24T22:22:00.953Z,16.10
2018-06-24T22:24:29.557Z,16.10
2018-06-24T22:26:58.112Z,16.00
2018-06-24T22:29:26.586Z,16.00
2018-06-24T22:31:55.111Z,15.90
2018-06-24T22:34:23.696Z,15.90
2018-06-24T22:36:52.254Z,15.90
2018-06-24T22:39:20.765Z,15.80
2018-06-24T22:41:49.308Z,15.80
2018-06-24T22:44:17.842Z,15.70
2018-06-24T22:46:46.397Z,15.60
2018-06-24T22:49:15.215Z,15.50
2018-06-24T22:51:43.695Z,15.60
2018-06-24T22:54:12.209Z,15.60
2018-06-24T22:56:40.686Z,15.70
2018-06-24T22:59:20.360Z,15.70
2018-06-24T23:01:48.902Z,15.80
2018-06-24T23:04:17.391Z,15.70
2018-06-24T23:06:46.088Z,15.60
2018-06-24T23:09:14.553Z,15.50
2018-06-24T23:11:43.056Z,15.40
2018-06-24T23:14:11.553Z,15.40
2018-06-24T23:16:40.244Z,15.30
2018-06-24T23:19:08.730Z,15.50
2018-06-24T23:21:37.320Z,15.50
2018-06-24T23:24:05.797Z,15.40
2018-06-24T23:26:34.279Z,15.30
2018-06-24T23:29:02.747Z,15.40
2018-06-24T23:31:31.250Z,15.40
2018-06-24T23:36:28.041Z,15.30
2018-06-24T23:38:56.583Z,15.20
2018-06-24T23:41:25.181Z,15.10
2018-06-24T23:43:53.961Z,15.00
2018-06-24T23:46:22.434Z,15.10
2018-06-24T23:48:50.927Z,15.20
2018-06-24T23:51:19.549Z,15.20
2018-06-24T23:53:48.178Z,15.20
2018-06-24T23:56:16.648Z,15.20
2018-06-24T23:58:45.422Z,15.10
